Time;durP1;ratioP1;P1;durP2;ratioP2;P2;SDS_P1;SDS_P2;PMS_P1;PMS_P2;Temp;Humidity;BMP_temperature;BMP_pressure;BME280_temperature;BME280_humidity;BME280_pressure;Samples;Min_cycle;Max_cycle;Signal;HPM_P1;HPM_P2
2023/10/05 00:03:44;;;;;;;4.03;2.93;;;14.20;99.90;;;;;;5068871;28;20527;-72
2023/10/05 00:06:14;;;;;;;4.72;3.15;;;14.10;99.90;;;;;;5069135;28;20306;-72
2023/10/05 00:08:49;;;;;;;6.38;3.20;;;13.90;99.90;;;;;;5069117;28;20052;-71
2023/10/05 00:11:23;;;;;;;6.20;3.40;;;13.80;99.90;;;;;;5069013;28;20173;-71
2023/10/05 00:14:01;;;;;;;4.40;3.40;;;13.70;99.90;;;;;;5068837;28;20058;-71
2023/10/05 00:16:37;;;;;;;4.70;3.08;;;13.60;99.90;;;;;;5068515;28;20032;-71
2023/10/05 00:19:11;;;;;;;6.63;3.53;;;13.60;99.90;;;;;;5068743;28;20117;-71
2023/10/05 00:21:40;;;;;;;4.22;3.13;;;13.50;99.90;;;;;;5069170;28;20040;-71
2023/10/05 00:24:11;;;;;;;4.53;3.22;;;13.40;99.90;;;;;;5068638;28;20131;-71
2023/10/05 00:26:36;;;;;;;7.07;3.25;;;13.30;99.90;;;;;;5068679;28;20060;-71
2023/10/05 00:29:15;;;;;;;4.82;3.30;;;13.30;99.90;;;;;;5068417;28;20538;-71
2023/10/05 00:31:41;;;;;;;4.93;3.40;;;13.30;99.90;;;;;;5068003;28;20062;-71
2023/10/05 00:36:50;;;;;;;5.15;3.40;;;13.20;99.90;;;;;;5071100;28;20090;-72
2023/10/05 00:39:19;;;;;;;6.80;3.58;;;13.20;99.90;;;;;;5071161;28;20037;-72
2023/10/05 00:41:45;;;;;;;6.18;3.30;;;13.20;99.90;;;;;;5069645;28;20028;-72
2023/10/05 00:44:12;;;;;;;4.18;3.40;;;13.20;99.90;;;;;;5070762;28;20028;-73
2023/10/05 00:46:39;;;;;;;5.82;3.65;;;13.00;99.90;;;;;;5070450;28;20017;-71
2023/10/05 00:49:17;;;;;;;7.90;3.60;;;13.00;99.90;;;;;;5070881;28;20476;-71
2023/10/05 00:51:47;;;;;;;5.25;3.67;;;13.00;99.90;;;;;;5070976;28;20028;-71
2023/10/05 00:54:18;;;;;;;3.45;3.10;;;13.00;99.90;;;;;;5070750;28;20498;-72
2023/10/05 00:56:46;;;;;;;4.50;3.40;;;13.00;99.90;;;;;;5071216;28;20048;-72
2023/10/05 00:59:20;;;;;;;4.68;3.55;;;13.00;99.90;;;;;;5070797;28;20540;-72
2023/10/05 01:02:14;;;;;;;6.47;3.60;;;13.30;99.90;;;;;;5070558;28;20065;-72
2023/10/05 01:04:52;;;;;;;4.60;3.72;;;13.40;99.90;;;;;;5070949;28;20394;-73
2023/10/05 01:08:13;;;;;;;6.13;3.47;;;13.60;99.90;;;;;;5070920;28;20395;-72
2023/10/05 01:12:45;;;;;;;7.00;3.42;;;13.70;99.90;;;;;;5071099;28;20024;-72
2023/10/05 01:15:19;;;;;;;4.93;3.47;;;13.80;99.90;;;;;;5070505;28;20061;-72
2023/10/05 01:17:45;;;;;;;4.55;3.40;;;13.70;99.90;;;;;;5070499;28;20471;-72
2023/10/05 01:20:22;;;;;;;4.65;3.25;;;13.60;99.90;;;;;;5070735;28;20048;-72
2023/10/05 01:22:56;;;;;;;5.97;3.80;;;13.60;99.90;;;;;;5070833;28;20027;-72
2023/10/05 01:25:22;;;;;;;4.50;3.30;;;13.70;99.90;;;;;;5089305;28;20056;-71
2023/10/05 01:27:50;;;;;;;4.40;3.20;;;13.60;99.90;;;;;;5090664;28;20051;-72
2023/10/05 01:30:16;;;;;;;4.35;3.40;;;13.50;99.90;;;;;;5090310;28;20394;-71
2023/10/05 01:32:44;;;;;;;4.97;3.40;;;13.40;99.90;;;;;;5090860;28;20413;-71
2023/10/05 01:35:15;;;;;;;5.68;3.45;;;13.20;99.90;;;;;;5090706;28;20414;-71
2023/10/05 01:37:43;;;;;;;5.85;3.70;;;13.00;99.90;;;;;;5090408;28;20040;-71
2023/10/05 01:40:30;;;;;;;4.30;3.45;;;12.90;99.90;;;;;;5089275;28;20032;-71
2023/10/05 01:42:56;;;;;;;5.90;3.97;;;12.80;99.90;;;;;;5092780;28;20024;-70
2023/10/05 01:45:25;;;;;;;5.82;3.90;;;12.70;99.90;;;;;;5094203;28;20534;-72
2023/10/05 01:47:51;;;;;;;5.13;3.78;;;12.60;99.90;;;;;;5093858;28;20105;-72
2023/10/05 01:50:26;;;;;;;5.80;3.92;;;12.50;99.90;;;;;;5094498;28;20031;-72
2023/10/05 01:55:35;;;;;;;5.22;3.90;;;12.40;99.90;;;;;;5094055;28;20402;-72
2023/10/05 01:58:02;;;;;;;5.45;4.55;;;12.40;99.90;;;;;;5093523;28;20503;-71
2023/10/05 02:00:30;;;;;;;5.93;4.15;;;12.40;99.90;;;;;;5093941;28;20096;-71
2023/10/05 02:02:56;;;;;;;6.82;4.00;;;12.30;99.90;;;;;;5094020;28;20028;-71
2023/10/05 02:05:22;;;;;;;5.07;3.97;;;12.30;99.90;;;;;;5094270;28;20417;-71
2023/10/05 02:07:49;;;;;;;5.55;4.05;;;12.20;99.90;;;;;;5093732;28;20355;-71
2023/10/05 02:10:19;;;;;;;7.32;4.00;;;12.20;99.90;;;;;;5093707;28;20103;-71
2023/10/05 02:12:49;;;;;;;6.18;3.85;;;12.10;99.90;;;;;;5093829;28;20031;-71
2023/10/05 02:15:16;;;;;;;5.97;4.00;;;12.10;99.90;;;;;;5093516;28;20032;-71
2023/10/05 02:17:51;;;;;;;6.13;4.00;;;12.10;99.90;;;;;;5093436;28;20028;-70
2023/10/05 02:23:29;;;;;;;10.48;4.25;;;12.10;99.90;;;;;;5088732;28;20040;-71
2023/10/05 02:26:15;;;;;;;5.77;4.17;;;12.10;99.90;;;;;;5093530;28;20405;-70
2023/10/05 02:28:41;;;;;;;5.22;4.35;;;12.10;99.90;;;;;;5092899;28;20056;-70
2023/10/05 02:31:12;;;;;;;6.70;4.30;;;12.00;99.90;;;;;;5093466;28;20028;-70
2023/10/05 02:33:38;;;;;;;5.60;4.43;;;12.00;99.90;;;;;;5093310;28;20024;-70
2023/10/05 02:38:53;;;;;;;6.47;4.45;;;11.90;99.90;;;;;;5093188;28;20067;-71
2023/10/05 02:41:37;;;;;;;5.05;4.55;;;12.20;99.90;;;;;;5092847;28;20533;-71
2023/10/05 02:44:08;;;;;;;7.63;5.00;;;12.40;99.90;;;;;;5093108;28;20048;-72
2023/10/05 02:46:33;;;;;;;7.15;4.57;;;12.50;99.90;;;;;;5093077;28;20089;-71
2023/10/05 02:48:59;;;;;;;6.88;4.72;;;12.60;99.90;;;;;;5091714;28;20024;-71
2023/10/05 02:51:26;;;;;;;5.95;4.57;;;12.60;99.90;;;;;;5091632;28;20031;-71
2023/10/05 02:54:03;;;;;;;5.47;4.00;;;12.60;99.90;;;;;;5092924;28;20550;-71
2023/10/05 02:56:31;;;;;;;6.32;4.43;;;12.60;99.90;;;;;;5092869;28;20039;-71
2023/10/05 02:59:02;;;;;;;6.10;4.70;;;12.60;99.90;;;;;;5092859;28;20071;-71
2023/10/05 03:01:32;;;;;;;5.75;4.15;;;12.60;99.90;;;;;;5092835;28;20024;-71
2023/10/05 03:04:21;;;;;;;5.60;4.35;;;12.60;99.90;;;;;;5093211;28;20024;-70
2023/10/05 03:06:52;;;;;;;7.45;4.65;;;12.70;99.90;;;;;;5092752;28;20032;-70
2023/10/05 03:09:21;;;;;;;6.00;4.50;;;12.50;99.90;;;;;;5093102;28;20152;-70
2023/10/05 03:11:48;;;;;;;7.60;5.00;;;12.40;99.90;;;;;;5092251;28;20028;-69
2023/10/05 03:14:17;;;;;;;8.57;5.25;;;12.20;99.90;;;;;;5092388;28;20521;-70
2023/10/05 03:16:43;;;;;;;5.70;4.78;;;12.10;99.90;;;;;;5092321;28;20406;-70
2023/10/05 03:19:34;;;;;;;8.50;5.07;;;12.00;99.90;;;;;;5092282;28;20513;-70
2023/10/05 03:21:58;;;;;;;7.40;4.60;;;11.90;99.90;;;;;;5092484;28;20040;-70
2023/10/05 03:24:25;;;;;;;6.63;4.80;;;11.70;99.90;;;;;;5092588;28;20027;-70
2023/10/05 03:26:56;;;;;;;5.28;4.50;;;11.70;99.90;;;;;;5092631;28;20533;-70
2023/10/05 03:29:22;;;;;;;8.00;5.13;;;11.70;99.90;;;;;;5092464;28;20422;-70
2023/10/05 03:31:55;;;;;;;7.20;4.90;;;11.60;99.90;;;;;;5092628;28;20028;-70
2023/10/05 03:34:26;;;;;;;6.20;4.25;;;11.60;99.90;;;;;;5092368;28;20473;-70
2023/10/05 03:36:52;;;;;;;6.88;4.78;;;11.50;99.90;;;;;;5091920;28;20529;-71
2023/10/05 03:39:18;;;;;;;7.63;5.05;;;11.60;99.90;;;;;;5091728;28;20038;-71
2023/10/05 03:41:44;;;;;;;5.80;4.53;;;11.40;99.90;;;;;;5092226;28;20024;-71
2023/10/05 03:44:15;;;;;;;7.60;4.97;;;11.40;99.90;;;;;;5091853;28;20458;-70
2023/10/05 03:46:49;;;;;;;5.30;4.60;;;11.40;99.90;;;;;;5091678;28;20134;-71
2023/10/05 03:49:15;;;;;;;6.90;4.93;;;11.40;99.90;;;;;;5091926;28;20115;-70
2023/10/05 03:51:50;;;;;;;5.82;5.05;;;11.40;99.90;;;;;;5091706;28;20036;-71
2023/10/05 03:54:26;;;;;;;6.13;4.85;;;11.40;99.90;;;;;;5091416;28;20500;-70
2023/10/05 03:57:10;;;;;;;7.00;5.05;;;11.40;99.90;;;;;;5091524;28;20530;-70
2023/10/05 03:59:36;;;;;;;5.75;5.13;;;11.40;99.90;;;;;;5091718;28;20628;-70
2023/10/05 04:02:06;;;;;;;5.72;4.78;;;11.40;99.90;;;;;;5091748;28;20024;-70
2023/10/05 04:04:35;;;;;;;8.27;5.35;;;11.30;99.90;;;;;;5091145;28;20051;-70
2023/10/05 04:07:04;;;;;;;8.90;5.10;;;11.30;99.90;;;;;;5091334;28;20115;-70
2023/10/05 04:09:30;;;;;;;7.50;5.70;;;11.20;99.90;;;;;;5091608;28;20032;-71
2023/10/05 04:11:56;;;;;;;8.00;5.50;;;11.20;99.90;;;;;;5091545;28;20036;-71
2023/10/05 04:14:23;;;;;;;7.68;5.20;;;11.30;99.90;;;;;;5091570;28;20032;-70
2023/10/05 04:16:51;;;;;;;6.43;5.05;;;11.30;99.90;;;;;;5091476;28;20013;-70
2023/10/05 04:19:17;;;;;;;8.30;6.07;;;11.40;99.90;;;;;;5091442;28;20042;-70
2023/10/05 04:21:46;;;;;;;9.27;5.32;;;11.60;99.90;;;;;;5091683;28;20032;-70
2023/10/05 04:24:15;;;;;;;7.07;5.15;;;11.70;99.90;;;;;;5091074;28;20111;-71
2023/10/05 04:26:45;;;;;;;8.15;5.57;;;11.90;99.90;;;;;;5091378;28;20043;-70
2023/10/05 04:29:12;;;;;;;7.38;5.10;;;11.90;99.90;;;;;;5091303;28;20048;-70
2023/10/05 04:31:38;;;;;;;6.35;5.38;;;11.90;99.90;;;;;;5091672;28;20371;-71
2023/10/05 04:34:18;;;;;;;7.63;5.18;;;11.90;99.90;;;;;;5091188;28;20028;-70
2023/10/05 04:36:45;;;;;;;10.15;5.82;;;12.10;99.90;;;;;;5091170;28;20051;-70
2023/10/05 04:39:12;;;;;;;6.93;5.43;;;12.10;99.90;;;;;;5091086;28;20036;-70
2023/10/05 04:41:49;;;;;;;7.35;5.68;;;12.10;99.90;;;;;;5091142;28;20026;-70
2023/10/05 04:44:15;;;;;;;8.07;5.05;;;12.10;99.90;;;;;;5091032;28;20036;-70
2023/10/05 04:46:48;;;;;;;7.63;5.50;;;12.10;99.90;;;;;;5091038;28;20078;-70
2023/10/05 04:49:18;;;;;;;9.18;5.32;;;11.90;99.90;;;;;;5090941;28;20042;-69
2023/10/05 04:51:44;;;;;;;8.68;5.05;;;11.70;99.90;;;;;;5090679;28;20482;-70
2023/10/05 04:54:12;;;;;;;7.53;5.35;;;11.50;99.90;;;;;;5091499;28;20614;-70
2023/10/05 05:07:02;;;;;;;6.32;5.05;;;11.20;99.90;;;;;;5068539;28;20028;-69
2023/10/05 05:09:34;;;;;;;5.85;5.10;;;11.10;99.90;;;;;;5068636;28;20033;-70
2023/10/05 05:12:04;;;;;;;6.47;5.07;;;11.10;99.90;;;;;;5068422;28;20037;-69
2023/10/05 05:14:33;;;;;;;8.48;5.32;;;11.00;99.90;;;;;;5068314;28;20035;-69
2023/10/05 05:17:06;;;;;;;8.73;5.05;;;11.00;99.90;;;;;;5069186;28;20458;-70
2023/10/05 05:19:32;;;;;;;8.98;5.53;;;11.00;99.90;;;;;;5072049;28;20434;-70
2023/10/05 05:22:02;;;;;;;8.57;5.10;;;11.00;99.90;;;;;;5071725;28;20032;-70
2023/10/05 05:24:29;;;;;;;9.75;5.28;;;11.00;99.90;;;;;;5071777;28;20142;-70
2023/10/05 05:27:00;;;;;;;7.95;5.00;;;10.90;99.90;;;;;;5071965;28;20394;-69
2023/10/05 05:29:32;;;;;;;9.65;5.10;;;10.90;99.90;;;;;;5071900;28;20185;-70
2023/10/05 05:32:02;;;;;;;8.70;4.90;;;10.90;99.90;;;;;;5072055;28;20545;-70
2023/10/05 05:34:28;;;;;;;9.95;5.10;;;10.90;99.90;;;;;;5071673;28;20041;-70
2023/10/05 05:36:56;;;;;;;9.07;5.35;;;10.90;99.90;;;;;;5071463;28;20035;-70
2023/10/05 05:39:23;;;;;;;7.40;4.95;;;10.80;99.90;;;;;;5071670;28;20579;-70
2023/10/05 05:41:56;;;;;;;9.45;5.20;;;10.80;99.90;;;;;;5073778;28;20486;-70
2023/10/05 05:44:22;;;;;;;6.97;4.82;;;10.80;99.90;;;;;;5074326;28;20498;-70
2023/10/05 05:46:55;;;;;;;10.13;5.07;;;10.80;99.90;;;;;;5073797;28;20734;-70
2023/10/05 05:49:21;;;;;;;7.60;5.18;;;10.80;99.90;;;;;;5073938;28;20035;-69
2023/10/05 05:51:47;;;;;;;7.53;5.15;;;10.80;99.90;;;;;;5073554;28;20570;-70
2023/10/05 05:54:13;;;;;;;9.10;5.63;;;10.70;99.90;;;;;;5073892;28;20150;-70
2023/10/05 05:56:42;;;;;;;8.27;5.80;;;10.80;99.90;;;;;;5074127;28;20042;-69
2023/10/05 05:59:08;;;;;;;8.65;6.00;;;10.90;99.90;;;;;;5073709;28;20024;-70
2023/10/05 06:01:37;;;;;;;7.38;5.63;;;11.20;99.90;;;;;;5073651;28;20029;-71
2023/10/05 06:04:06;;;;;;;9.32;5.80;;;11.40;99.90;;;;;;5073700;28;20024;-70
2023/10/05 06:06:31;;;;;;;8.88;5.70;;;11.50;99.90;;;;;;5073602;28;20097;-70
2023/10/05 06:08:57;;;;;;;9.27;5.65;;;11.60;99.90;;;;;;5073685;28;20029;-70
2023/10/05 06:11:23;;;;;;;8.38;5.70;;;11.60;99.90;;;;;;5073846;28;20078;-70
2023/10/05 06:13:49;;;;;;;11.30;5.40;;;11.70;99.90;;;;;;5073229;28;20021;-70
2023/10/05 06:16:15;;;;;;;10.02;5.75;;;11.80;99.90;;;;;;5073530;28;20051;-70
2023/10/05 06:18:41;;;;;;;8.60;5.05;;;11.80;99.90;;;;;;5073030;28;20090;-71
2023/10/05 06:21:06;;;;;;;9.27;5.72;;;11.80;99.90;;;;;;5073334;28;20024;-70
2023/10/05 06:23:34;;;;;;;10.38;5.53;;;11.80;99.90;;;;;;5076558;28;20459;-71
2023/10/05 06:26:03;;;;;;;10.15;5.78;;;11.80;99.90;;;;;;5093228;28;20028;-71
2023/10/05 06:28:29;;;;;;;8.43;5.50;;;11.70;99.90;;;;;;5093387;28;20044;-70
2023/10/05 06:30:56;;;;;;;8.52;5.40;;;11.50;99.90;;;;;;5093288;28;20066;-71
2023/10/05 06:33:22;;;;;;;10.65;5.88;;;11.40;99.90;;;;;;5093014;28;20092;-70
2023/10/05 06:35:48;;;;;;;9.38;5.85;;;11.30;99.90;;;;;;5093233;28;20024;-70
2023/10/05 06:38:15;;;;;;;8.00;5.60;;;11.30;99.90;;;;;;5093058;28;20394;-71
2023/10/05 06:40:42;;;;;;;10.93;5.80;;;11.20;99.90;;;;;;5093603;28;20047;-71
2023/10/05 06:43:07;;;;;;;11.43;5.88;;;11.20;99.90;;;;;;5093188;28;20047;-70
2023/10/05 06:45:35;;;;;;;12.68;6.00;;;11.20;99.90;;;;;;5092886;28;20486;-71
2023/10/05 06:48:02;;;;;;;11.10;6.15;;;11.20;99.90;;;;;;5092615;28;20074;-70
2023/10/05 06:50:28;;;;;;;8.98;5.75;;;11.20;99.90;;;;;;5092972;28;20028;-70
2023/10/05 06:52:53;;;;;;;8.95;5.95;;;11.20;99.90;;;;;;5092675;28;20032;-72
2023/10/05 06:55:22;;;;;;;9.90;6.35;;;11.20;99.90;;;;;;5092711;28;20077;-71
2023/10/05 06:57:50;;;;;;;10.52;6.15;;;11.20;99.90;;;;;;5093282;28;20028;-71
2023/10/05 07:00:20;;;;;;;9.63;5.95;;;11.30;99.90;;;;;;5092769;28;20471;-71
2023/10/05 07:02:50;;;;;;;7.38;6.10;;;11.30;99.90;;;;;;5092719;28;20390;-70
2023/10/05 07:05:17;;;;;;;7.30;5.22;;;11.30;99.90;;;;;;5091930;28;20024;-71
2023/10/05 07:07:43;;;;;;;6.97;5.00;;;11.40;99.90;;;;;;5092321;28;20081;-71
2023/10/05 07:10:13;;;;;;;7.18;4.85;;;11.40;99.90;;;;;;5092388;28;20095;-71
2023/10/05 07:12:41;;;;;;;9.90;4.93;;;11.40;99.90;;;;;;5092378;28;20024;-71
2023/10/05 07:15:08;;;;;;;7.18;5.03;;;11.50;99.90;;;;;;5092628;28;20065;-71
2023/10/05 07:17:34;;;;;;;8.80;4.93;;;11.50;99.90;;;;;;5091748;28;20028;-71
2023/10/05 07:20:01;;;;;;;8.38;4.63;;;11.60;99.90;;;;;;5092239;28;20077;-72
2023/10/05 07:22:27;;;;;;;8.82;4.80;;;11.60;99.90;;;;;;5092485;28;20059;-71
2023/10/05 07:24:53;;;;;;;8.73;5.13;;;11.70;99.90;;;;;;5092221;28;20063;-71
2023/10/05 07:27:19;;;;;;;9.35;4.88;;;11.70;99.90;;;;;;5092232;28;20028;-71
2023/10/05 07:29:45;;;;;;;9.43;5.13;;;11.70;99.90;;;;;;5092516;28;20031;-72
2023/10/05 07:32:14;;;;;;;7.03;5.20;;;11.70;99.90;;;;;;5091828;28;20107;-77
2023/10/05 07:34:43;;;;;;;8.82;5.68;;;11.80;99.90;;;;;;5092240;28;20058;-71
2023/10/05 07:37:10;;;;;;;10.60;6.07;;;11.80;99.90;;;;;;5091945;28;20020;-72
2023/10/05 07:39:42;;;;;;;18.38;6.88;;;11.90;99.90;;;;;;5091075;28;20040;-72
2023/10/05 07:42:11;;;;;;;20.58;7.72;;;12.30;99.90;;;;;;5092370;28;20082;-72
2023/10/05 07:44:37;;;;;;;12.75;7.38;;;12.80;99.90;;;;;;5092318;28;20067;-72
2023/10/05 07:47:04;;;;;;;13.18;8.80;;;13.00;99.90;;;;;;5091372;28;20506;-72
2023/10/05 07:49:30;;;;;;;158.27;101.38;;;13.20;99.90;;;;;;5091816;28;20034;-72
2023/10/05 07:51:58;;;;;;;80.00;56.90;;;13.40;99.90;;;;;;5091692;28;20028;-72
2023/10/05 07:54:23;;;;;;;277.77;194.77;;;13.50;99.90;;;;;;5092370;28;20031;-73
2023/10/05 07:56:49;;;;;;;71.60;49.40;;;13.50;99.90;;;;;;5091906;28;20542;-72
2023/10/05 07:59:15;;;;;;;47.10;34.15;;;13.60;99.90;;;;;;5091418;28;20040;-71
2023/10/05 08:01:41;;;;;;;41.80;30.25;;;13.90;99.90;;;;;;5091115;28;20024;-73
2023/10/05 08:04:11;;;;;;;23.65;16.45;;;14.20;99.90;;;;;;5091560;28;20118;-73
2023/10/05 08:06:43;;;;;;;13.48;9.82;;;14.20;99.90;;;;;;5091567;28;20032;-72
2023/10/05 08:09:14;;;;;;;15.67;10.00;;;14.20;99.90;;;;;;5091760;28;20103;-73
2023/10/05 08:11:41;;;;;;;40.88;12.85;;;14.10;99.90;;;;;;5091375;28;20344;-74
2023/10/05 08:14:07;;;;;;;51.28;13.73;;;14.10;99.90;;;;;;5091676;28;20085;-74
2023/10/05 08:16:34;;;;;;;22.02;9.05;;;14.10;99.90;;;;;;5091417;28;20038;-74
2023/10/05 08:19:00;;;;;;;19.80;8.23;;;14.20;99.90;;;;;;5091594;28;20386;-75
2023/10/05 08:21:27;;;;;;;76.68;10.48;;;14.30;99.90;;;;;;5092400;28;20440;-74
2023/10/05 08:23:53;;;;;;;31.30;8.35;;;14.40;99.90;;;;;;5091541;28;20035;-74
2023/10/05 08:26:18;;;;;;;28.83;10.48;;;14.40;99.90;;;;;;5091421;28;20017;-74
2023/10/05 08:28:50;;;;;;;24.20;9.65;;;14.60;99.90;;;;;;5091323;28;20422;-74
2023/10/05 08:31:22;;;;;;;30.00;11.00;;;14.80;99.90;;;;;;5091438;28;20028;-74
2023/10/05 08:33:54;;;;;;;41.72;9.80;;;14.90;99.90;;;;;;5091315;28;20036;-73
2023/10/05 08:36:25;;;;;;;41.17;8.40;;;15.00;99.90;;;;;;5090615;28;20035;-74
2023/10/05 08:38:54;;;;;;;16.73;6.57;;;15.10;99.90;;;;;;5091442;28;20039;-73
2023/10/05 08:41:35;;;;;;;22.67;6.88;;;15.10;99.90;;;;;;5091325;28;20173;-74
2023/10/05 08:44:06;;;;;;;30.10;7.93;;;15.20;99.90;;;;;;5090808;28;20028;-74
2023/10/05 08:46:43;;;;;;;24.98;7.80;;;15.30;99.90;;;;;;5090983;28;20032;-73
2023/10/05 08:49:10;;;;;;;50.45;10.82;;;15.40;99.90;;;;;;5091432;28;20103;-73
2023/10/05 08:51:39;;;;;;;22.73;7.82;;;15.40;99.90;;;;;;5093511;28;20056;-73
2023/10/05 08:54:13;;;;;;;46.92;8.75;;;15.50;99.90;;;;;;5096189;28;20059;-75
2023/10/05 08:56:40;;;;;;;;;;;15.80;99.90;;;;;;5096360;28;20383;-76
2023/10/05 08:59:13;;;;;;;29.65;8.43;;;15.70;99.90;;;;;;5095419;28;19912;-75
2023/10/05 09:01:43;;;;;;;23.15;12.80;;;15.70;99.90;;;;;;5095611;28;20486;-76
2023/10/05 09:06:49;;;;;;;43.65;16.20;;;15.70;99.90;;;;;;5095352;28;20053;-75
2023/10/05 09:09:30;;;;;;;23.20;11.15;;;15.80;99.90;;;;;;5095316;28;20058;-75
2023/10/05 09:11:56;;;;;;;15.65;7.03;;;15.90;99.90;;;;;;5095244;28;20056;-76
2023/10/05 09:14:38;;;;;;;15.35;7.47;;;15.70;99.90;;;;;;5094863;28;20455;-76
2023/10/05 09:17:10;;;;;;;21.15;7.03;;;15.60;99.90;;;;;;5094960;28;20024;-75
2023/10/05 09:19:37;;;;;;;14.45;6.40;;;15.80;99.90;;;;;;5095171;28;20066;-75
2023/10/05 09:24:33;;;;;;;11.98;4.80;;;16.30;99.90;;;;;;5094751;28;20027;-72
2023/10/05 09:27:19;;;;;;;12.45;5.03;;;16.30;99.90;;;;;;5093059;28;20062;-72
2023/10/05 09:29:45;;;;;;;11.43;4.60;;;16.40;99.90;;;;;;5094281;28;20505;-71
2023/10/05 09:32:37;;;;;;;13.35;4.93;;;16.50;99.90;;;;;;5094620;28;20451;-72
2023/10/05 09:35:10;;;;;;;6.80;4.35;;;16.60;99.90;;;;;;5092540;28;20032;-72
2023/10/05 09:37:41;;;;;;;11.30;4.18;;;16.80;99.90;;;;;;5094294;28;20081;-72
2023/10/05 09:40:15;;;;;;;7.45;3.90;;;16.90;99.90;;;;;;5094313;28;20502;-72
2023/10/05 09:42:43;;;;;;;8.15;4.18;;;17.10;99.90;;;;;;5093993;28;20032;-72
2023/10/05 09:45:12;;;;;;;7.22;3.90;;;17.30;99.90;;;;;;5094334;28;20028;-72
2023/10/05 09:47:40;;;;;;;5.15;3.50;;;17.40;99.90;;;;;;5094576;28;20027;-72
2023/10/05 09:50:10;;;;;;;5.18;3.33;;;17.70;99.90;;;;;;5094249;28;20059;-72
2023/10/05 09:52:46;;;;;;;5.45;2.95;;;17.80;99.90;;;;;;5093895;28;20038;-72
2023/10/05 09:55:18;;;;;;;5.10;3.20;;;17.70;99.90;;;;;;5093973;28;20031;-70
2023/10/05 09:57:51;;;;;;;4.82;3.10;;;17.60;99.90;;;;;;5093461;28;20028;-70
2023/10/05 10:00:47;;;;;;;5.22;2.92;;;17.40;99.90;;;;;;5094078;28;20039;-71
2023/10/05 10:03:17;;;;;;;5.32;3.10;;;17.30;99.90;;;;;;5093024;28;20028;-70
2023/10/05 10:06:07;;;;;;;8.02;4.85;;;17.30;99.90;;;;;;5093724;28;20073;-70
2023/10/05 10:08:34;;;;;;;7.28;3.70;;;17.40;99.90;;;;;;5093676;28;20089;-73
2023/10/05 10:11:17;;;;;;;5.07;3.42;;;17.50;99.90;;;;;;5093461;28;20047;-70
2023/10/05 10:14:08;;;;;;;5.88;3.60;;;17.40;99.90;;;;;;5093689;28;20052;-72
2023/10/05 10:16:41;;;;;;;4.97;3.60;;;17.40;99.90;;;;;;5093188;28;20405;-73
2023/10/05 10:19:19;;;;;;;6.07;3.43;;;17.40;99.90;;;;;;5093880;28;20035;-71
2023/10/05 10:21:47;;;;;;;4.45;3.08;;;17.60;99.90;;;;;;5093260;28;20032;-71
2023/10/05 10:24:17;;;;;;;6.57;3.42;;;17.60;99.90;;;;;;5093230;28;20027;-71
2023/10/05 10:27:11;;;;;;;5.07;3.38;;;17.60;99.90;;;;;;5093486;28;20397;-73
2023/10/05 10:29:46;;;;;;;4.63;3.47;;;17.70;99.90;;;;;;5093704;28;20036;-71
2023/10/05 10:32:31;;;;;;;4.30;3.17;;;17.70;99.90;;;;;;5093330;28;20040;-72
2023/10/05 10:35:12;;;;;;;4.60;3.22;;;17.80;99.90;;;;;;5093055;28;20052;-72
2023/10/05 10:37:49;;;;;;;4.45;3.20;;;17.90;99.90;;;;;;5092518;28;20031;-72
2023/10/05 10:43:06;;;;;;;5.88;3.47;;;18.10;99.90;;;;;;5092968;28;20024;-72
2023/10/05 10:45:42;;;;;;;4.18;3.20;;;18.30;99.90;;;;;;5092882;28;20024;-72
2023/10/05 10:48:32;;;;;;;5.13;3.47;;;18.30;99.90;;;;;;5093027;28;20020;-72
2023/10/05 10:50:59;;;;;;;5.05;3.20;;;18.50;99.90;;;;;;5092948;28;20032;-71
2023/10/05 10:53:31;;;;;;;3.92;3.03;;;18.50;99.90;;;;;;5092982;28;20061;-71
2023/10/05 10:56:04;;;;;;;5.07;3.10;;;18.60;99.90;;;;;;5092508;28;20112;-72
2023/10/05 10:58:32;;;;;;;5.25;2.90;;;18.80;99.90;;;;;;5092786;28;20020;-73
2023/10/05 11:01:02;;;;;;;4.38;3.20;;;19.10;99.90;;;;;;5092658;28;20506;-73
2023/10/05 11:03:30;;;;;;;4.35;2.85;;;19.30;99.90;;;;;;5093136;28;20024;-73
2023/10/05 11:06:01;;;;;;;4.45;2.75;;;19.50;99.90;;;;;;5092631;28;20031;-73
2023/10/05 11:08:39;;;;;;;5.13;2.60;;;19.60;99.90;;;;;;5092168;28;20031;-70
2023/10/05 11:11:19;;;;;;;5.35;2.90;;;19.80;99.90;;;;;;5092571;28;20028;-73
2023/10/05 11:13:54;;;;;;;6.05;2.85;;;20.10;99.90;;;;;;5092543;28;20028;-72
2023/10/05 11:16:21;;;;;;;5.78;3.20;;;20.10;99.90;;;;;;5092640;28;20529;-73
2023/10/05 11:19:00;;;;;;;5.20;2.95;;;20.20;99.90;;;;;;5092484;28;20050;-73
2023/10/05 11:21:26;;;;;;;6.60;3.28;;;20.20;99.90;;;;;;5092022;28;20024;-73
2023/10/05 11:23:56;;;;;;;6.15;2.78;;;20.40;99.90;;;;;;5091828;28;20069;-75
2023/10/05 11:26:28;;;;;;;4.68;3.03;;;20.50;99.90;;;;;;5092235;28;20553;-72
2023/10/05 11:28:56;;;;;;;6.38;2.85;;;20.50;99.90;;;;;;5091913;28;20074;-72
2023/10/05 11:31:23;;;;;;;5.57;2.85;;;20.60;99.90;;;;;;5092316;28;20020;-72
2023/10/05 11:33:53;;;;;;;5.50;3.13;;;20.60;99.90;;;;;;5092386;28;20036;-72
2023/10/05 11:36:22;;;;;;;4.03;3.00;;;20.40;99.90;;;;;;5092089;28;20088;-72
2023/10/05 11:38:57;;;;;;;5.18;2.97;;;20.30;99.90;;;;;;5091901;28;20032;-72
2023/10/05 11:41:28;;;;;;;5.03;2.90;;;20.20;99.90;;;;;;5092023;28;20157;-72
2023/10/05 11:43:55;;;;;;;6.15;3.00;;;20.20;99.90;;;;;;5092137;28;20020;-73
2023/10/05 11:46:26;;;;;;;3.80;2.50;;;20.30;99.90;;;;;;5091922;28;20256;-73
2023/10/05 11:48:55;;;;;;;4.55;2.90;;;20.30;99.90;;;;;;5091896;28;20107;-72
2023/10/05 11:51:27;;;;;;;9.48;2.83;;;20.40;99.90;;;;;;5091770;28;20028;-72
2023/10/05 11:53:55;;;;;;;4.70;2.72;;;20.40;99.90;;;;;;5091527;28;20039;-72
2023/10/05 11:56:21;;;;;;;5.03;2.95;;;20.30;99.90;;;;;;5091809;28;20028;-72
2023/10/05 11:58:47;;;;;;;5.20;2.88;;;20.40;99.90;;;;;;5092164;28;20024;-73
2023/10/05 12:01:17;;;;;;;4.82;2.80;;;20.50;99.90;;;;;;5091727;28;20047;-73
2023/10/05 12:03:47;;;;;;;4.70;3.22;;;20.60;99.90;;;;;;5091583;28;20024;-73
2023/10/05 12:06:20;;;;;;;4.93;3.10;;;20.60;99.90;;;;;;5091800;28;20490;-73
2023/10/05 12:08:47;;;;;;;4.15;2.50;;;20.60;99.90;;;;;;5091297;28;20031;-73
2023/10/05 12:11:14;;;;;;;5.28;2.70;;;20.70;99.90;;;;;;5091981;28;20474;-73
2023/10/05 12:13:40;;;;;;;5.40;2.63;;;20.80;99.90;;;;;;5091474;28;20066;-72
2023/10/05 12:16:12;;;;;;;5.43;2.78;;;20.80;99.90;;;;;;5091647;28;20028;-73
2023/10/05 12:18:41;;;;;;;5.45;2.70;;;20.90;99.90;;;;;;5091662;28;20028;-73
2023/10/05 12:21:09;;;;;;;4.70;2.78;;;20.90;99.90;;;;;;5091551;28;20035;-73
2023/10/05 12:23:35;;;;;;;4.15;2.60;;;21.10;99.90;;;;;;5091257;28;20024;-73
2023/10/05 12:26:04;;;;;;;4.00;3.17;;;21.10;99.90;;;;;;5091146;28;20059;-73
2023/10/05 12:28:30;;;;;;;4.20;2.60;;;21.30;99.90;;;;;;5091334;28;20123;-73
2023/10/05 12:30:56;;;;;;;6.15;2.90;;;21.30;99.90;;;;;;5091248;28;20510;-73
2023/10/05 12:33:21;;;;;;;4.72;2.83;;;21.20;99.90;;;;;;5091207;28;20024;-73
2023/10/05 12:35:52;;;;;;;7.28;2.90;;;21.30;99.90;;;;;;5090884;28;20402;-74
2023/10/05 12:38:19;;;;;;;4.00;2.65;;;21.50;99.90;;;;;;5091382;28;20024;-74
2023/10/05 12:40:47;;;;;;;4.13;2.47;;;21.80;99.90;;;;;;5091294;28;20032;-74
2023/10/05 12:43:16;;;;;;;4.28;2.60;;;22.00;99.90;;;;;;5091178;28;20103;-75
2023/10/05 12:45:43;;;;;;;3.40;2.47;;;22.20;99.90;;;;;;5091390;28;20054;-74
2023/10/05 12:48:11;;;;;;;4.55;2.50;;;22.30;99.90;;;;;;5091685;28;20086;-74
2023/10/05 12:50:37;;;;;;;5.97;2.78;;;22.50;99.90;;;;;;5091087;28;20059;-74
2023/10/05 12:53:05;;;;;;;5.75;2.80;;;22.50;99.90;;;;;;5091202;28;20027;-74
2023/10/05 12:55:32;;;;;;;6.50;3.10;;;22.40;99.90;;;;;;5091385;28;20032;-74
2023/10/05 12:57:58;;;;;;;5.72;2.78;;;22.60;99.90;;;;;;5091118;28;20027;-75
2023/10/05 13:00:31;;;;;;;5.53;2.70;;;22.60;99.90;;;;;;5091048;28;20044;-74
2023/10/05 13:03:00;;;;;;;4.13;2.38;;;22.70;99.90;;;;;;5090918;28;20107;-74
2023/10/05 13:05:31;;;;;;;4.05;2.72;;;22.90;99.90;;;;;;5091100;28;20078;-75
2023/10/05 13:08:01;;;;;;;6.72;2.80;;;22.90;99.90;;;;;;5091027;28;20028;-75
2023/10/05 13:10:32;;;;;;;3.90;2.88;;;22.90;99.90;;;;;;5091094;28;20021;-74
2023/10/05 13:13:03;;;;;;;5.50;2.60;;;23.10;99.90;;;;;;5090876;28;20051;-74
2023/10/05 13:15:35;;;;;;;4.43;2.80;;;23.10;99.90;;;;;;5091028;28;20020;-74
2023/10/05 13:18:15;;;;;;;4.75;2.65;;;23.00;99.90;;;;;;5089565;28;20522;-74
2023/10/05 13:20:53;;;;;;;5.45;2.72;;;23.00;99.90;;;;;;5090973;28;20415;-74
2023/10/05 13:23:21;;;;;;;3.45;2.80;;;23.10;99.90;;;;;;5090707;28;20031;-74
2023/10/05 13:25:48;;;;;;;5.05;2.75;;;23.20;99.90;;;;;;5090798;28;20020;-74
2023/10/05 13:28:18;;;;;;;6.57;2.90;;;23.30;99.90;;;;;;5090966;28;20585;-74
2023/10/05 13:30:50;;;;;;;5.45;2.80;;;23.30;99.90;;;;;;5090733;28;20020;-74
2023/10/05 13:33:28;;;;;;;4.90;2.45;;;23.40;99.90;;;;;;5090884;28;20028;-74
2023/10/05 13:35:57;;;;;;;6.95;2.63;;;23.40;99.90;;;;;;5090855;28;20028;-74